createdAt,value
2019-04-26T14:26:05.165Z,6.62
2019-04-26T14:28:33.034Z,7.17
2019-04-26T14:30:59.873Z,6.40
2019-04-26T14:33:30.886Z,6.45
2019-04-26T14:35:56.356Z,6.45
2019-04-26T14:38:28.017Z,8.30
2019-04-26T14:41:03.358Z,6.07
2019-04-26T14:43:22.419Z,7.03
2019-04-26T14:45:55.682Z,7.00
2019-04-26T14:48:29.355Z,7.25
2019-04-26T14:50:46.789Z,7.03
2019-04-26T14:53:13.871Z,6.93
2019-04-26T14:55:40.602Z,6.80
2019-04-26T14:58:07.471Z,6.20
2019-04-26T15:00:36.287Z,7.22
2019-04-26T15:03:17.286Z,6.05
2019-04-26T15:06:05.422Z,6.90
2019-04-26T15:08:34.061Z,7.08
2019-04-26T15:11:04.448Z,7.15
2019-04-26T15:13:34.841Z,8.48
2019-04-26T15:16:03.896Z,7.27
2019-04-26T15:18:33.175Z,6.95
2019-04-26T15:20:58.672Z,10.32
2019-04-26T15:23:26.561Z,8.43
2019-04-26T15:25:53.551Z,7.92
2019-04-26T15:28:22.024Z,7.62
2019-04-26T15:30:49.070Z,6.75
2019-04-26T15:33:15.930Z,7.67
2019-04-26T15:35:45.804Z,7.72
2019-04-26T15:38:12.742Z,6.05
2019-04-26T15:41:17.434Z,7.00
2019-04-26T15:43:57.482Z,7.03
2019-04-26T15:46:48.334Z,5.90
2019-04-26T15:49:29.451Z,6.33
2019-04-26T15:51:59.750Z,5.80
2019-04-26T15:54:26.341Z,5.55
2019-04-26T15:56:53.761Z,6.60
2019-04-26T15:59:22.790Z,5.10
2019-04-26T16:01:49.897Z,4.40
2019-04-26T16:04:17.395Z,4.95
2019-04-26T16:06:45.567Z,3.67
2019-04-26T16:09:19.355Z,4.15
2019-04-26T16:11:42.800Z,3.67
2019-04-26T16:14:12.367Z,3.05
2019-04-26T16:16:39.114Z,2.80
2019-04-26T16:19:05.863Z,3.10
2019-04-26T16:21:34.600Z,2.37
2019-04-26T16:24:02.774Z,2.90
2019-04-26T16:26:29.555Z,2.77
2019-04-26T16:29:18.238Z,2.70
2019-04-26T16:32:16.783Z,2.33
2019-04-26T16:34:47.622Z,2.40
2019-04-26T16:37:21.499Z,2.47
2019-04-26T16:39:48.409Z,2.15
2019-04-26T16:42:14.008Z,2.27
2019-04-26T16:44:44.811Z,1.70
2019-04-26T16:47:09.492Z,1.82
2019-04-26T16:49:41.804Z,1.72
2019-04-26T16:52:06.974Z,1.98
2019-04-26T16:54:34.233Z,2.00
2019-04-26T16:57:06.267Z,2.25
2019-04-26T16:59:32.849Z,2.10
2019-04-26T17:02:02.387Z,2.10
2019-04-26T17:04:32.142Z,2.43
2019-04-26T17:07:04.809Z,2.42
2019-04-26T17:09:53.952Z,2.02
2019-04-26T17:11:57.714Z,2.60
2019-04-26T17:14:24.739Z,2.73
2019-04-26T17:16:53.261Z,2.25
2019-04-26T17:19:20.094Z,2.13
2019-04-26T17:21:56.613Z,2.10
2019-04-26T17:24:43.768Z,2.35
2019-04-26T17:27:14.459Z,2.25
2019-04-26T17:29:42.231Z,2.83
2019-04-26T17:32:13.992Z,3.27
2019-04-26T17:34:40.439Z,2.58
2019-04-26T17:37:12.172Z,4.03
2019-04-26T17:39:40.374Z,3.60
2019-04-26T17:42:06.464Z,3.83
2019-04-26T17:44:34.174Z,4.87
2019-04-26T17:47:02.111Z,5.87
2019-04-26T17:49:34.385Z,6.72
2019-04-26T17:52:00.349Z,6.03
2019-04-26T17:54:43.723Z,6.87
2019-04-26T17:56:56.292Z,7.93
2019-04-26T17:59:33.523Z,9.73
2019-04-26T18:02:00.538Z,13.73
2019-04-26T18:04:32.257Z,13.77
2019-04-26T18:06:57.703Z,15.63
2019-04-26T18:09:39.064Z,16.40
2019-04-26T18:11:47.468Z,22.00
2019-04-26T18:14:21.239Z,21.17
2019-04-26T18:16:47.207Z,23.13
2019-04-26T18:19:33.785Z,24.87
2019-04-26T18:22:36.414Z,24.37
2019-04-26T18:25:11.292Z,27.33
2019-04-26T18:27:38.273Z,27.90
2019-04-26T18:30:08.954Z,25.50
2019-04-26T18:32:42.155Z,26.43
2019-04-26T18:35:04.482Z,29.43
2019-04-26T18:37:31.584Z,29.63
2019-04-26T18:40:02.058Z,27.73
2019-04-26T18:42:27.519Z,28.23
2019-04-26T18:44:56.010Z,28.53
2019-04-26T18:47:32.867Z,30.77
2019-04-26T18:49:59.673Z,28.73
2019-04-26T18:52:28.052Z,34.10
2019-04-26T18:55:10.192Z,34.33
2019-04-26T18:57:36.833Z,32.13
2019-04-26T19:00:07.627Z,32.37
2019-04-26T19:02:36.401Z,32.40
2019-04-26T19:05:03.732Z,39.87
2019-04-26T19:07:32.509Z,40.10
2019-04-26T19:10:03.358Z,40.77
2019-04-26T19:12:28.525Z,44.80
2019-04-26T19:15:07.891Z,41.43
2019-04-26T19:17:54.479Z,41.67
2019-04-26T19:20:32.233Z,40.63
2019-04-26T19:23:00.793Z,45.37
2019-04-26T19:25:29.764Z,42.00
2019-04-26T19:27:58.725Z,42.97
2019-04-26T19:30:26.838Z,46.87
2019-04-26T19:32:57.138Z,48.27
2019-04-26T19:35:25.292Z,49.97
2019-04-26T19:37:52.381Z,50.40
2019-04-26T19:40:19.218Z,52.13
2019-04-26T19:42:46.098Z,51.17
2019-04-26T19:45:22.963Z,51.57
2019-04-26T19:47:55.445Z,56.90
2019-04-26T19:50:33.511Z,54.70
2019-04-26T19:53:23.017Z,51.57
2019-04-26T19:56:05.950Z,51.53
2019-04-26T19:58:32.685Z,54.87
2019-04-26T20:01:00.000Z,49.07
2019-04-26T20:03:27.118Z,50.27
2019-04-26T20:05:54.043Z,52.90
2019-04-26T20:08:21.558Z,54.17
2019-04-26T20:10:49.582Z,56.47
2019-04-26T20:13:16.722Z,55.97
2019-04-26T20:15:44.887Z,55.30
2019-04-26T20:18:12.203Z,51.93
2019-04-26T20:20:41.431Z,59.63
2019-04-26T20:23:08.366Z,55.60
2019-04-26T20:25:35.233Z,60.17
2019-04-26T20:28:03.157Z,60.30
2019-04-26T20:30:42.267Z,61.23
2019-04-26T20:33:09.369Z,55.70
2019-04-26T20:35:36.004Z,64.47
2019-04-26T20:38:04.889Z,62.23
2019-04-26T20:40:32.080Z,63.13
2019-04-26T20:43:03.375Z,64.47
2019-04-26T20:45:38.684Z,65.67
2019-04-26T20:47:57.458Z,65.27
2019-04-26T20:50:24.125Z,69.10
2019-04-26T20:52:53.984Z,63.30
2019-04-26T20:55:23.441Z,63.20
2019-04-26T20:57:48.833Z,69.53
2019-04-26T21:00:15.527Z,69.07
2019-04-26T21:02:42.370Z,68.37
2019-04-26T21:05:14.688Z,68.20
2019-04-26T21:07:41.843Z,64.10
2019-04-26T21:10:15.230Z,64.37
2019-04-26T21:12:39.750Z,68.67
2019-04-26T21:15:06.688Z,67.37
2019-04-26T21:17:34.013Z,65.70
2019-04-26T21:20:02.137Z,73.40
2019-04-26T21:22:31.750Z,72.93
2019-04-26T21:25:04.683Z,64.93
2019-04-26T21:27:57.325Z,66.67
2019-04-26T21:30:38.685Z,61.83
2019-04-26T21:33:18.436Z,72.97
2019-04-26T21:35:50.406Z,62.60
2019-04-26T21:38:29.622Z,70.40
2019-04-26T21:41:08.931Z,68.63
2019-04-26T21:43:36.172Z,72.50
2019-04-26T21:46:07.772Z,70.57
2019-04-26T21:48:28.926Z,66.67
2019-04-26T21:50:55.812Z,66.60
2019-04-26T21:53:23.968Z,73.23
2019-04-26T21:55:51.446Z,68.20
2019-04-26T21:58:18.262Z,72.33
2019-04-26T22:01:05.844Z,71.63
2019-04-26T22:03:34.368Z,74.30
2019-04-26T22:06:01.171Z,73.60
2019-04-26T22:08:30.857Z,71.30
2019-04-26T22:10:57.907Z,69.13
2019-04-26T22:13:33.289Z,70.33
2019-04-26T22:16:16.242Z,70.50
2019-04-26T22:18:57.860Z,72.03
2019-04-26T22:21:31.744Z,69.50
2019-04-26T22:24:05.947Z,74.70
2019-04-26T22:26:34.023Z,71.13
2019-04-26T22:29:01.112Z,68.23
2019-04-26T22:31:28.124Z,80.87
2019-04-26T22:33:56.109Z,81.20
2019-04-26T22:36:23.355Z,78.13
2019-04-26T22:38:50.168Z,79.63
2019-04-26T22:41:17.014Z,73.33
2019-04-26T22:44:06.111Z,73.93
2019-04-26T22:46:50.702Z,76.40
2019-04-26T22:49:17.778Z,73.67
2019-04-26T22:51:44.419Z,71.87
2019-04-26T22:54:12.406Z,79.53
2019-04-26T22:56:39.979Z,76.37
2019-04-26T22:59:07.950Z,85.53
2019-04-26T23:01:39.168Z,80.60
2019-04-26T23:04:04.074Z,78.10
2019-04-26T23:06:30.734Z,77.17
2019-04-26T23:08:57.749Z,72.63
2019-04-26T23:11:25.266Z,72.97
2019-04-26T23:14:11.601Z,84.73
2019-04-26T23:17:14.117Z,90.70
2019-04-26T23:19:44.434Z,90.33
2019-04-26T23:22:12.767Z,97.07
2019-04-26T23:24:39.393Z,96.27
2019-04-26T23:27:06.233Z,95.17
2019-04-26T23:29:33.695Z,91.13
2019-04-26T23:32:00.385Z,83.93
2019-04-26T23:34:27.244Z,94.30
2019-04-26T23:36:54.325Z,105.73
2019-04-26T23:39:22.790Z,99.43
2019-04-26T23:41:50.233Z,82.23
2019-04-26T23:44:16.969Z,83.97
2019-04-26T23:46:43.563Z,82.20
2019-04-26T23:49:10.383Z,84.07
2019-04-26T23:51:38.260Z,82.27
2019-04-26T23:54:06.183Z,78.33
2019-04-26T23:56:33.481Z,78.27
2019-04-26T23:59:00.229Z,73.27
